sensor_id;sensor_type;location;lat;lon;timestamp;pressure;altitude;pressure_sealevel;temperature;humidity
76285;BME280;71676;50.998;7.098;2024-02-21T00:02:19;101794.84;;;8.05;58.02
76285;BME280;71676;50.998;7.098;2024-02-21T00:04:47;101780.22;;;8.02;58.30
76285;BME280;71676;50.998;7.098;2024-02-21T00:07:13;101787.97;;;8.04;58.07
76285;BME280;71676;50.998;7.098;2024-02-21T00:09:40;101789.00;;;8.09;57.91
76285;BME280;71676;50.998;7.098;2024-02-21T00:12:07;101787.28;;;8.09;58.00
76285;BME280;71676;50.998;7.098;2024-02-21T00:14:34;101783.81;;;8.07;58.20
76285;BME280;71676;50.998;7.098;2024-02-21T00:17:00;101776.34;;;8.15;58.00
76285;BME280;71676;50.998;7.098;2024-02-21T00:19:27;101770.34;;;8.14;58.07
76285;BME280;71676;50.998;7.098;2024-02-21T00:21:55;101766.97;;;8.15;58.22
76285;BME280;71676;50.998;7.098;2024-02-21T00:24:22;101767.00;;;8.17;58.11
76285;BME280;71676;50.998;7.098;2024-02-21T00:26:48;101760.25;;;8.20;58.30
76285;BME280;71676;50.998;7.098;2024-02-21T00:29:15;101758.50;;;8.19;58.45
76285;BME280;71676;50.998;7.098;2024-02-21T00:31:41;101755.09;;;8.20;58.47
76285;BME280;71676;50.998;7.098;2024-02-21T00:34:10;101755.91;;;8.18;58.50
76285;BME280;71676;50.998;7.098;2024-02-21T00:36:38;101749.88;;;8.17;58.51
76285;BME280;71676;50.998;7.098;2024-02-21T00:39:06;101748.19;;;8.18;58.33
76285;BME280;71676;50.998;7.098;2024-02-21T00:41:32;101736.28;;;8.20;57.90
76285;BME280;71676;50.998;7.098;2024-02-21T00:43:59;101739.56;;;8.16;57.82
76285;BME280;71676;50.998;7.098;2024-02-21T00:46:26;101733.63;;;8.17;58.14
76285;BME280;71676;50.998;7.098;2024-02-21T00:48:53;101743.84;;;8.15;58.01
76285;BME280;71676;50.998;7.098;2024-02-21T00:51:19;101731.66;;;8.10;58.00
76285;BME280;71676;50.998;7.098;2024-02-21T00:53:46;101749.63;;;8.10;58.20
76285;BME280;71676;50.998;7.098;2024-02-21T00:56:14;101733.56;;;8.15;58.35
76285;BME280;71676;50.998;7.098;2024-02-21T00:58:40;101722.69;;;7.97;58.77
76285;BME280;71676;50.998;7.098;2024-02-21T01:01:07;101723.56;;;7.98;58.55
76285;BME280;71676;50.998;7.098;2024-02-21T01:03:34;101724.56;;;8.03;58.81
76285;BME280;71676;50.998;7.098;2024-02-21T01:06:00;101717.03;;;8.07;58.66
76285;BME280;71676;50.998;7.098;2024-02-21T01:08:27;101712.00;;;8.10;58.89
76285;BME280;71676;50.998;7.098;2024-02-21T01:10:53;101727.09;;;8.01;58.96
76285;BME280;71676;50.998;7.098;2024-02-21T01:13:22;101718.75;;;8.08;58.73
76285;BME280;71676;50.998;7.098;2024-02-21T01:15:48;101723.00;;;8.08;58.66
76285;BME280;71676;50.998;7.098;2024-02-21T01:18:15;101712.84;;;8.11;58.66
76285;BME280;71676;50.998;7.098;2024-02-21T01:20:41;101709.38;;;8.09;58.60
76285;BME280;71676;50.998;7.098;2024-02-21T01:23:08;101710.28;;;8.11;58.60
76285;BME280;71676;50.998;7.098;2024-02-21T01:25:35;101701.81;;;8.13;58.62
76285;BME280;71676;50.998;7.098;2024-02-21T01:28:01;101700.03;;;8.12;58.38
76285;BME280;71676;50.998;7.098;2024-02-21T01:30:29;101698.81;;;8.01;59.18
76285;BME280;71676;50.998;7.098;2024-02-21T01:32:56;101697.97;;;8.01;59.00
76285;BME280;71676;50.998;7.098;2024-02-21T01:35:22;101698.03;;;8.02;58.82
76285;BME280;71676;50.998;7.098;2024-02-21T01:37:49;101686.13;;;8.06;58.63
76285;BME280;71676;50.998;7.098;2024-02-21T01:40:17;101682.75;;;8.07;58.72
76285;BME280;71676;50.998;7.098;2024-02-21T01:42:43;101683.47;;;8.03;59.00
76285;BME280;71676;50.998;7.098;2024-02-21T01:45:10;101683.38;;;8.00;59.20
76285;BME280;71676;50.998;7.098;2024-02-21T01:47:38;101673.00;;;7.97;59.30
76285;BME280;71676;50.998;7.098;2024-02-21T01:50:06;101674.13;;;8.05;58.95
76285;BME280;71676;50.998;7.098;2024-02-21T01:52:33;101664.81;;;8.08;58.98
76285;BME280;71676;50.998;7.098;2024-02-21T01:55:01;101662.22;;;8.07;59.06
76285;BME280;71676;50.998;7.098;2024-02-21T01:57:28;101665.47;;;8.03;59.08
76285;BME280;71676;50.998;7.098;2024-02-21T01:59:58;101653.63;;;8.06;59.01
76285;BME280;71676;50.998;7.098;2024-02-21T02:02:25;101641.44;;;7.99;59.22
76285;BME280;71676;50.998;7.098;2024-02-21T02:04:54;101652.06;;;8.11;58.74
76285;BME280;71676;50.998;7.098;2024-02-21T02:07:21;101647.31;;;7.97;59.09
76285;BME280;71676;50.998;7.098;2024-02-21T02:09:47;101638.91;;;8.01;58.71
76285;BME280;71676;50.998;7.098;2024-02-21T02:12:14;101622.63;;;8.00;58.92
76285;BME280;71676;50.998;7.098;2024-02-21T02:14:41;101618.41;;;8.02;58.92
76285;BME280;71676;50.998;7.098;2024-02-21T02:17:08;101616.84;;;8.07;58.68
76285;BME280;71676;50.998;7.098;2024-02-21T02:19:35;101618.53;;;8.07;58.77
76285;BME280;71676;50.998;7.098;2024-02-21T02:22:09;101619.41;;;8.07;58.63
76285;BME280;71676;50.998;7.098;2024-02-21T02:24:36;101612.59;;;8.09;58.52
76285;BME280;71676;50.998;7.098;2024-02-21T02:27:03;101612.09;;;7.93;59.49
76285;BME280;71676;50.998;7.098;2024-02-21T02:29:31;101605.06;;;7.87;59.52
76285;BME280;71676;50.998;7.098;2024-02-21T02:31:58;101602.50;;;7.87;59.24
76285;BME280;71676;50.998;7.098;2024-02-21T02:34:25;101603.13;;;7.80;59.93
76285;BME280;71676;50.998;7.098;2024-02-21T02:36:51;101584.56;;;7.89;59.89
76285;BME280;71676;50.998;7.098;2024-02-21T02:39:19;101581.00;;;7.84;60.05
76285;BME280;71676;50.998;7.098;2024-02-21T02:41:47;101579.47;;;7.90;59.93
76285;BME280;71676;50.998;7.098;2024-02-21T02:44:14;101586.13;;;7.84;59.94
76285;BME280;71676;50.998;7.098;2024-02-21T02:46:41;101575.06;;;7.85;60.09
76285;BME280;71676;50.998;7.098;2024-02-21T02:49:08;101566.56;;;7.87;59.86
76285;BME280;71676;50.998;7.098;2024-02-21T02:51:34;101565.84;;;7.91;59.71
76285;BME280;71676;50.998;7.098;2024-02-21T02:54:02;101579.66;;;7.96;59.49
76285;BME280;71676;50.998;7.098;2024-02-21T02:56:29;101580.69;;;8.01;59.46
76285;BME280;71676;50.998;7.098;2024-02-21T02:58:57;101575.59;;;8.03;59.57
76285;BME280;71676;50.998;7.098;2024-02-21T03:01:24;101574.59;;;7.98;59.54
76285;BME280;71676;50.998;7.098;2024-02-21T03:03:50;101577.25;;;8.01;59.57
76285;BME280;71676;50.998;7.098;2024-02-21T03:06:17;101569.59;;;8.02;59.44
76285;BME280;71676;50.998;7.098;2024-02-21T03:08:43;101581.75;;;8.08;59.64
76285;BME280;71676;50.998;7.098;2024-02-21T03:11:10;101574.78;;;8.04;59.42
76285;BME280;71676;50.998;7.098;2024-02-21T03:13:37;101562.03;;;8.07;59.43
76285;BME280;71676;50.998;7.098;2024-02-21T03:16:05;101562.94;;;8.09;59.32
76285;BME280;71676;50.998;7.098;2024-02-21T03:18:32;101550.06;;;8.07;59.47
76285;BME280;71676;50.998;7.098;2024-02-21T03:20:59;101550.97;;;8.09;59.53
76285;BME280;71676;50.998;7.098;2024-02-21T03:23:25;101540.69;;;8.09;59.74
76285;BME280;71676;50.998;7.098;2024-02-21T03:25:52;101538.56;;;7.96;60.26
76285;BME280;71676;50.998;7.098;2024-02-21T03:28:18;101538.31;;;7.87;60.13
76285;BME280;71676;50.998;7.098;2024-02-21T03:30:45;101536.63;;;7.88;60.18
76285;BME280;71676;50.998;7.098;2024-02-21T03:33:13;101540.19;;;7.93;60.17
76285;BME280;71676;50.998;7.098;2024-02-21T03:35:39;101526.31;;;7.86;60.25
76285;BME280;71676;50.998;7.098;2024-02-21T03:38:06;101525.38;;;7.84;60.68
76285;BME280;71676;50.998;7.098;2024-02-21T03:40:33;101523.09;;;7.66;61.70
76285;BME280;71676;50.998;7.098;2024-02-21T03:42:59;101523.56;;;7.55;61.73
76285;BME280;71676;50.998;7.098;2024-02-21T03:45:26;101529.69;;;7.58;61.41
76285;BME280;71676;50.998;7.098;2024-02-21T03:47:52;101525.56;;;7.63;61.34
76285;BME280;71676;50.998;7.098;2024-02-21T03:50:20;101492.78;;;7.55;61.19
76285;BME280;71676;50.998;7.098;2024-02-21T03:52:47;101508.63;;;7.68;61.15
76285;BME280;71676;50.998;7.098;2024-02-21T03:55:14;101508.88;;;7.76;60.89
76285;BME280;71676;50.998;7.098;2024-02-21T03:57:40;101509.94;;;7.83;60.65
76285;BME280;71676;50.998;7.098;2024-02-21T04:00:08;101503.91;;;7.82;60.51
76285;BME280;71676;50.998;7.098;2024-02-21T04:02:37;101511.88;;;7.90;60.14
76285;BME280;71676;50.998;7.098;2024-02-21T04:05:04;101515.47;;;7.96;59.68
76285;BME280;71676;50.998;7.098;2024-02-21T04:07:32;101516.00;;;7.85;59.86
76285;BME280;71676;50.998;7.098;2024-02-21T04:09:59;101513.72;;;7.95;59.62
76285;BME280;71676;50.998;7.098;2024-02-21T04:12:26;101511.78;;;7.88;60.04
76285;BME280;71676;50.998;7.098;2024-02-21T04:14:52;101518.88;;;7.68;60.33
76285;BME280;71676;50.998;7.098;2024-02-21T04:17:19;101520.34;;;7.60;61.28
76285;BME280;71676;50.998;7.098;2024-02-21T04:19:45;101522.06;;;7.61;61.04
76285;BME280;71676;50.998;7.098;2024-02-21T04:22:12;101513.41;;;7.58;61.14
76285;BME280;71676;50.998;7.098;2024-02-21T04:24:40;101515.44;;;7.68;60.99
76285;BME280;71676;50.998;7.098;2024-02-21T04:27:07;101518.41;;;7.80;60.53
76285;BME280;71676;50.998;7.098;2024-02-21T04:29:33;101512.47;;;7.81;60.39
76285;BME280;71676;50.998;7.098;2024-02-21T04:32:01;101502.13;;;7.80;60.72
76285;BME280;71676;50.998;7.098;2024-02-21T04:34:28;101502.00;;;7.75;60.83
76285;BME280;71676;50.998;7.098;2024-02-21T04:36:54;101485.75;;;7.76;60.63
76285;BME280;71676;50.998;7.098;2024-02-21T04:39:21;101482.63;;;7.85;60.18
76285;BME280;71676;50.998;7.098;2024-02-21T04:41:49;101484.22;;;7.81;60.15
76285;BME280;71676;50.998;7.098;2024-02-21T04:44:16;101485.75;;;7.76;60.77
76285;BME280;71676;50.998;7.098;2024-02-21T04:46:42;101491.88;;;7.80;60.43
76285;BME280;71676;50.998;7.098;2024-02-21T04:49:09;101498.81;;;7.84;60.33
76285;BME280;71676;50.998;7.098;2024-02-21T04:51:36;101494.53;;;7.83;60.14
76285;BME280;71676;50.998;7.098;2024-02-21T04:54:02;101499.63;;;7.81;60.22
76285;BME280;71676;50.998;7.098;2024-02-21T04:56:29;101501.16;;;7.76;60.75
76285;BME280;71676;50.998;7.098;2024-02-21T04:58:57;101500.38;;;7.78;60.53
76285;BME280;71676;50.998;7.098;2024-02-21T05:01:23;101506.13;;;7.71;60.72
76285;BME280;71676;50.998;7.098;2024-02-21T05:03:50;101502.06;;;7.77;60.48
76285;BME280;71676;50.998;7.098;2024-02-21T05:06:17;101493.47;;;7.76;60.76
76285;BME280;71676;50.998;7.098;2024-02-21T05:08:44;101494.63;;;7.86;60.17
76285;BME280;71676;50.998;7.098;2024-02-21T05:11:10;101495.13;;;7.74;60.19
76285;BME280;71676;50.998;7.098;2024-02-21T05:13:37;101493.47;;;7.76;60.24
76285;BME280;71676;50.998;7.098;2024-02-21T05:16:06;101488.16;;;7.71;60.42
76285;BME280;71676;50.998;7.098;2024-02-21T05:18:32;101485.69;;;7.73;60.55
76285;BME280;71676;50.998;7.098;2024-02-21T05:20:59;101490.81;;;7.73;60.51
76285;BME280;71676;50.998;7.098;2024-02-21T05:23:26;101480.34;;;7.67;60.50
76285;BME280;71676;50.998;7.098;2024-02-21T05:25:52;101481.19;;;7.67;60.79
76285;BME280;71676;50.998;7.098;2024-02-21T05:28:19;101476.28;;;7.73;60.97
76285;BME280;71676;50.998;7.098;2024-02-21T05:30:45;101472.72;;;7.70;60.89
76285;BME280;71676;50.998;7.098;2024-02-21T05:33:13;101488.44;;;7.79;60.75
76285;BME280;71676;50.998;7.098;2024-02-21T05:35:46;101484.31;;;7.84;60.32
76285;BME280;71676;50.998;7.098;2024-02-21T05:38:13;101475.66;;;7.82;60.51
76285;BME280;71676;50.998;7.098;2024-02-21T05:40:39;101472.31;;;7.83;60.50
76285;BME280;71676;50.998;7.098;2024-02-21T05:43:07;101463.81;;;7.86;60.52
76285;BME280;71676;50.998;7.098;2024-02-21T05:45:33;101449.75;;;7.73;60.39
76285;BME280;71676;50.998;7.098;2024-02-21T05:48:00;101461.22;;;7.86;60.53
76285;BME280;71676;50.998;7.098;2024-02-21T05:50:29;101463.53;;;7.77;60.81
76285;BME280;71676;50.998;7.098;2024-02-21T05:52:56;101468.25;;;7.64;60.95
76285;BME280;71676;50.998;7.098;2024-02-21T05:55:23;101464.69;;;7.59;61.20
76285;BME280;71676;50.998;7.098;2024-02-21T05:57:49;101469.84;;;7.61;61.28
76285;BME280;71676;50.998;7.098;2024-02-21T06:00:16;101462.28;;;7.64;61.15
76285;BME280;71676;50.998;7.098;2024-02-21T06:02:43;101459.53;;;7.59;61.00
76285;BME280;71676;50.998;7.098;2024-02-21T06:05:10;101461.31;;;7.60;61.17
76285;BME280;71676;50.998;7.098;2024-02-21T06:07:38;101459.53;;;7.59;61.19
76285;BME280;71676;50.998;7.098;2024-02-21T06:10:07;101465.81;;;7.69;60.42
76285;BME280;71676;50.998;7.098;2024-02-21T06:12:34;101457.44;;;7.73;60.81
76285;BME280;71676;50.998;7.098;2024-02-21T06:15:01;101451.38;;;7.72;60.75
76285;BME280;71676;50.998;7.098;2024-02-21T06:17:28;101459.22;;;7.75;60.90
76285;BME280;71676;50.998;7.098;2024-02-21T06:19:54;101452.47;;;7.79;60.86
76285;BME280;71676;50.998;7.098;2024-02-21T06:22:21;101444.06;;;7.83;60.37
76285;BME280;71676;50.998;7.098;2024-02-21T06:24:49;101446.66;;;7.85;60.37
76285;BME280;71676;50.998;7.098;2024-02-21T06:27:15;101438.81;;;7.80;60.51
76285;BME280;71676;50.998;7.098;2024-02-21T06:29:43;101434.56;;;7.81;60.69
76285;BME280;71676;50.998;7.098;2024-02-21T06:32:09;101432.75;;;7.77;60.67
76285;BME280;71676;50.998;7.098;2024-02-21T06:34:36;101434.56;;;7.81;60.64
76285;BME280;71676;50.998;7.098;2024-02-21T06:37:03;101426.50;;;7.70;60.63
76285;BME280;71676;50.998;7.098;2024-02-21T06:39:29;101425.84;;;7.75;60.72
76285;BME280;71676;50.998;7.098;2024-02-21T06:41:57;101427.56;;;7.75;60.65
76285;BME280;71676;50.998;7.098;2024-02-21T06:44:24;101419.63;;;7.69;60.83
76285;BME280;71676;50.998;7.098;2024-02-21T06:46:51;101425.59;;;7.68;61.07
76285;BME280;71676;50.998;7.098;2024-02-21T06:49:17;101417.09;;;7.70;60.88
76285;BME280;71676;50.998;7.098;2024-02-21T06:51:44;101416.84;;;7.61;60.84
76285;BME280;71676;50.998;7.098;2024-02-21T06:54:11;101394.91;;;7.43;61.01
76285;BME280;71676;50.998;7.098;2024-02-21T06:56:39;101400.38;;;7.55;61.22
76285;BME280;71676;50.998;7.098;2024-02-21T06:59:08;101404.88;;;7.62;61.14
76285;BME280;71676;50.998;7.098;2024-02-21T07:01:34;101402.25;;;7.59;61.14
76285;BME280;71676;50.998;7.098;2024-02-21T07:04:01;101406.22;;;7.49;61.53
76285;BME280;71676;50.998;7.098;2024-02-21T07:06:27;101396.09;;;7.54;61.32
76285;BME280;71676;50.998;7.098;2024-02-21T07:08:55;101402.31;;;7.62;61.10
76285;BME280;71676;50.998;7.098;2024-02-21T07:11:21;101396.31;;;7.61;61.21
76285;BME280;71676;50.998;7.098;2024-02-21T07:13:48;101406.66;;;7.64;61.16
76285;BME280;71676;50.998;7.098;2024-02-21T07:16:16;101396.56;;;7.70;60.93
76285;BME280;71676;50.998;7.098;2024-02-21T07:18:42;101394.00;;;7.70;60.66
76285;BME280;71676;50.998;7.098;2024-02-21T07:21:09;101388.16;;;7.74;60.11
76285;BME280;71676;50.998;7.098;2024-02-21T07:23:36;101389.69;;;7.69;60.14
76285;BME280;71676;50.998;7.098;2024-02-21T07:26:04;101395.16;;;7.80;60.13
76285;BME280;71676;50.998;7.098;2024-02-21T07:28:30;101391.63;;;7.75;60.19
76285;BME280;71676;50.998;7.098;2024-02-21T07:30:58;101385.56;;;7.73;60.01
76285;BME280;71676;50.998;7.098;2024-02-21T07:33:27;101377.84;;;7.73;59.93
76285;BME280;71676;50.998;7.098;2024-02-21T07:35:53;101386.53;;;7.77;60.16
76285;BME280;71676;50.998;7.098;2024-02-21T07:38:20;101385.78;;;7.81;60.22
76285;BME280;71676;50.998;7.098;2024-02-21T07:40:47;101363.91;;;7.65;60.39
76285;BME280;71676;50.998;7.098;2024-02-21T07:43:14;101375.38;;;7.76;59.74
76285;BME280;71676;50.998;7.098;2024-02-21T07:45:41;101378.94;;;7.81;59.85
76285;BME280;71676;50.998;7.098;2024-02-21T07:48:07;101383.06;;;7.76;59.46
76285;BME280;71676;50.998;7.098;2024-02-21T07:50:35;101376.34;;;7.80;59.66
76285;BME280;71676;50.998;7.098;2024-02-21T07:53:03;101379.50;;;7.72;59.85
76285;BME280;71676;50.998;7.098;2024-02-21T07:55:29;101366.03;;;7.78;59.12
76285;BME280;71676;50.998;7.098;2024-02-21T07:57:56;101352.03;;;7.68;59.23
76285;BME280;71676;50.998;7.098;2024-02-21T08:00:23;101371.13;;;7.77;59.18
76285;BME280;71676;50.998;7.098;2024-02-21T08:02:51;101367.63;;;7.74;59.46
76285;BME280;71676;50.998;7.098;2024-02-21T08:05:17;101370.84;;;7.69;59.53
76285;BME280;71676;50.998;7.098;2024-02-21T08:07:45;101362.47;;;7.73;59.16
76285;BME280;71676;50.998;7.098;2024-02-21T08:10:12;101361.50;;;7.71;59.37
76285;BME280;71676;50.998;7.098;2024-02-21T08:12:39;101355.69;;;7.75;59.20
76285;BME280;71676;50.998;7.098;2024-02-21T08:15:06;101353.69;;;7.66;59.51
76285;BME280;71676;50.998;7.098;2024-02-21T08:17:33;101353.59;;;7.63;59.45
76285;BME280;71676;50.998;7.098;2024-02-21T08:20:00;101347.59;;;7.63;59.77
76285;BME280;71676;50.998;7.098;2024-02-21T08:22:28;101344.78;;;7.54;59.76
76285;BME280;71676;50.998;7.098;2024-02-21T08:24:56;101330.38;;;7.59;60.04
76285;BME280;71676;50.998;7.098;2024-02-21T08:27:22;101329.63;;;7.63;59.74
76285;BME280;71676;50.998;7.098;2024-02-21T08:29:49;101323.00;;;7.71;59.05
76285;BME280;71676;50.998;7.098;2024-02-21T08:32:16;101321.38;;;7.73;59.17
76285;BME280;71676;50.998;7.098;2024-02-21T08:34:42;101318.78;;;7.43;59.94
76285;BME280;71676;50.998;7.098;2024-02-21T08:37:09;101265.22;;;7.24;59.39
76285;BME280;71676;50.998;7.098;2024-02-21T08:39:37;101310.44;;;7.50;59.52
76285;BME280;71676;50.998;7.098;2024-02-21T08:42:05;101312.09;;;7.48;60.04
76285;BME280;71676;50.998;7.098;2024-02-21T08:44:32;101302.25;;;7.63;59.39
76285;BME280;71676;50.998;7.098;2024-02-21T08:46:59;101291.13;;;7.63;59.36
76285;BME280;71676;50.998;7.098;2024-02-21T08:49:29;101297.84;;;7.59;59.32
76285;BME280;71676;50.998;7.098;2024-02-21T08:51:56;101300.13;;;7.49;59.91
76285;BME280;71676;50.998;7.098;2024-02-21T08:54:23;101307.91;;;7.52;59.92
76285;BME280;71676;50.998;7.098;2024-02-21T08:56:49;101294.53;;;7.62;59.08
76285;BME280;71676;50.998;7.098;2024-02-21T08:59:17;101279.47;;;7.74;58.73
76285;BME280;71676;50.998;7.098;2024-02-21T09:01:44;101275.72;;;7.63;58.80
76285;BME280;71676;50.998;7.098;2024-02-21T09:04:11;101277.38;;;7.61;59.52
76285;BME280;71676;50.998;7.098;2024-02-21T09:06:37;101273.91;;;7.59;59.42
76285;BME280;71676;50.998;7.098;2024-02-21T09:09:07;101274.19;;;7.69;58.47
76285;BME280;71676;50.998;7.098;2024-02-21T09:11:34;101270.97;;;7.75;58.70
76285;BME280;71676;50.998;7.098;2024-02-21T09:14:00;101260.72;;;7.77;58.41
76285;BME280;71676;50.998;7.098;2024-02-21T09:16:30;101258.94;;;7.74;58.25
76285;BME280;71676;50.998;7.098;2024-02-21T09:18:57;101248.13;;;7.86;57.94
76285;BME280;71676;50.998;7.098;2024-02-21T09:21:24;101254.69;;;7.74;58.61
76285;BME280;71676;50.998;7.098;2024-02-21T09:23:50;101246.84;;;7.70;58.26
76285;BME280;71676;50.998;7.098;2024-02-21T09:26:17;101245.16;;;7.72;58.08
76285;BME280;71676;50.998;7.098;2024-02-21T09:28:44;101232.66;;;7.83;57.19
76285;BME280;71676;50.998;7.098;2024-02-21T09:31:10;101242.25;;;7.90;57.33
76285;BME280;71676;50.998;7.098;2024-02-21T09:33:39;101232.91;;;7.93;56.98
76285;BME280;71676;50.998;7.098;2024-02-21T09:36:06;101240.75;;;7.98;56.83
76285;BME280;71676;50.998;7.098;2024-02-21T09:38:33;101238.13;;;7.96;56.69
76285;BME280;71676;50.998;7.098;2024-02-21T09:41:04;101235.78;;;8.05;56.73
76285;BME280;71676;50.998;7.098;2024-02-21T09:43:33;101223.50;;;7.94;56.79
76285;BME280;71676;50.998;7.098;2024-02-21T09:46:01;101228.81;;;8.01;56.27
76285;BME280;71676;50.998;7.098;2024-02-21T09:48:37;101217.91;;;8.10;55.99
76285;BME280;71676;50.998;7.098;2024-02-21T09:51:08;101214.69;;;8.17;55.23
76285;BME280;71676;50.998;7.098;2024-02-21T09:53:37;101207.81;;;8.17;55.95
76285;BME280;71676;50.998;7.098;2024-02-21T09:56:06;101207.00;;;8.18;55.58
76285;BME280;71676;50.998;7.098;2024-02-21T09:58:34;101209.50;;;8.15;55.36
76285;BME280;71676;50.998;7.098;2024-02-21T10:01:00;101205.50;;;8.26;55.50
76285;BME280;71676;50.998;7.098;2024-02-21T10:03:27;101203.88;;;7.96;56.25
76285;BME280;71676;50.998;7.098;2024-02-21T10:05:53;101196.50;;;8.09;56.44
76285;BME280;71676;50.998;7.098;2024-02-21T10:08:21;101202.25;;;8.35;54.70
76285;BME280;71676;50.998;7.098;2024-02-21T10:10:48;101196.03;;;8.25;55.27
76285;BME280;71676;50.998;7.098;2024-02-21T10:13:25;101205.81;;;8.41;54.90
76285;BME280;71676;50.998;7.098;2024-02-21T10:16:05;101187.25;;;8.53;54.20
76285;BME280;71676;50.998;7.098;2024-02-21T10:18:32;101193.09;;;8.47;53.16
76285;BME280;71676;50.998;7.098;2024-02-21T10:21:00;101190.91;;;8.64;53.86
76285;BME280;71676;50.998;7.098;2024-02-21T10:23:29;101195.19;;;8.63;52.94
76285;BME280;71676;50.998;7.098;2024-02-21T10:26:04;101187.81;;;8.78;52.17
76285;BME280;71676;50.998;7.098;2024-02-21T10:28:31;101193.81;;;8.79;52.03
76285;BME280;71676;50.998;7.098;2024-02-21T10:30:58;101184.50;;;8.84;52.67
76285;BME280;71676;50.998;7.098;2024-02-21T10:33:24;101179.53;;;8.93;52.32
76285;BME280;71676;50.998;7.098;2024-02-21T10:35:53;101156.88;;;8.74;53.57
76285;BME280;71676;50.998;7.098;2024-02-21T10:38:19;101179.53;;;8.93;53.51
76285;BME280;71676;50.998;7.098;2024-02-21T10:40:48;101172.09;;;9.06;52.28
76285;BME280;71676;50.998;7.098;2024-02-21T10:43:18;101173.00;;;9.08;51.66
76285;BME280;71676;50.998;7.098;2024-02-21T10:45:46;101153.78;;;8.90;52.60
76285;BME280;71676;50.998;7.098;2024-02-21T10:48:14;101156.66;;;9.06;52.97
76285;BME280;71676;50.998;7.098;2024-02-21T10:50:56;101156.63;;;8.63;52.34
76285;BME280;71676;50.998;7.098;2024-02-21T10:53:29;101155.09;;;8.73;53.84
76285;BME280;71676;50.998;7.098;2024-02-21T10:55:58;101150.94;;;8.78;53.71
76285;BME280;71676;50.998;7.098;2024-02-21T10:58:25;101144.03;;;9.15;51.88
76285;BME280;71676;50.998;7.098;2024-02-21T11:00:54;101136.91;;;9.04;52.68
76285;BME280;71676;50.998;7.098;2024-02-21T11:03:21;101144.13;;;9.22;51.04
76285;BME280;71676;50.998;7.098;2024-02-21T11:05:48;101132.28;;;9.30;50.84
76285;BME280;71676;50.998;7.098;2024-02-21T11:08:15;101118.53;;;9.29;51.28
76285;BME280;71676;50.998;7.098;2024-02-21T11:10:46;101078.22;;;9.30;50.33
76285;BME280;71676;50.998;7.098;2024-02-21T11:13:14;101069.72;;;9.34;50.54
76285;BME280;71676;50.998;7.098;2024-02-21T11:15:40;101084.72;;;9.59;49.62
76285;BME280;71676;50.998;7.098;2024-02-21T11:18:07;101078.91;;;9.69;49.74
76285;BME280;71676;50.998;7.098;2024-02-21T11:20:35;101072.91;;;9.71;49.80
76285;BME280;71676;50.998;7.098;2024-02-21T11:23:02;101067.75;;;9.70;49.51
76285;BME280;71676;50.998;7.098;2024-02-21T11:25:28;101023.84;;;9.61;49.45
76285;BME280;71676;50.998;7.098;2024-02-21T11:28:00;101046.53;;;9.87;49.22
76285;BME280;71676;50.998;7.098;2024-02-21T11:30:30;101036.59;;;9.55;50.29
76285;BME280;71676;50.998;7.098;2024-02-21T11:33:00;101036.31;;;9.35;50.15
76285;BME280;71676;50.998;7.098;2024-02-21T11:35:31;101021.44;;;9.73;49.58
76285;BME280;71676;50.998;7.098;2024-02-21T11:38:07;101011.41;;;9.92;49.54
76285;BME280;71676;50.998;7.098;2024-02-21T11:40:38;101005.47;;;9.40;50.07
76285;BME280;71676;50.998;7.098;2024-02-21T11:43:04;100984.63;;;9.23;50.81
76285;BME280;71676;50.998;7.098;2024-02-21T11:45:32;100970.59;;;9.60;49.94
76285;BME280;71676;50.998;7.098;2024-02-21T11:47:59;100966.25;;;9.54;49.07
76285;BME280;71676;50.998;7.098;2024-02-21T11:50:29;100959.63;;;9.73;50.33
76285;BME280;71676;50.998;7.098;2024-02-21T11:52:55;100953.13;;;9.38;49.14
76285;BME280;71676;50.998;7.098;2024-02-21T11:55:22;100954.69;;;9.28;49.76
76285;BME280;71676;50.998;7.098;2024-02-21T11:57:49;100931.00;;;9.50;50.28
76285;BME280;71676;50.998;7.098;2024-02-21T12:00:16;100944.44;;;9.91;50.04
76285;BME280;71676;50.998;7.098;2024-02-21T12:02:47;100933.16;;;9.81;48.22
76285;BME280;71676;50.998;7.098;2024-02-21T12:05:15;100902.72;;;9.55;49.18
76285;BME280;71676;50.998;7.098;2024-02-21T12:07:43;100931.34;;;9.77;50.08
76285;BME280;71676;50.998;7.098;2024-02-21T12:10:10;100914.75;;;9.53;49.58
76285;BME280;71676;50.998;7.098;2024-02-21T12:12:37;100917.50;;;9.09;49.97
76285;BME280;71676;50.998;7.098;2024-02-21T12:15:05;100903.13;;;9.21;49.86
76285;BME280;71676;50.998;7.098;2024-02-21T12:17:33;100897.44;;;9.44;50.29
76285;BME280;71676;50.998;7.098;2024-02-21T12:20:02;100885.06;;;9.82;49.06
76285;BME280;71676;50.998;7.098;2024-02-21T12:22:35;100885.97;;;9.85;48.21
76285;BME280;71676;50.998;7.098;2024-02-21T12:25:03;100880.03;;;9.92;48.69
76285;BME280;71676;50.998;7.098;2024-02-21T12:27:33;100863.00;;;10.03;48.41
76285;BME280;71676;50.998;7.098;2024-02-21T12:29:59;100851.97;;;10.15;48.53
76285;BME280;71676;50.998;7.098;2024-02-21T12:32:26;100842.44;;;10.09;49.22
76285;BME280;71676;50.998;7.098;2024-02-21T12:34:53;100833.22;;;9.55;49.07
76285;BME280;71676;50.998;7.098;2024-02-21T12:37:21;100822.34;;;9.77;49.08
76285;BME280;71676;50.998;7.098;2024-02-21T12:39:48;100830.75;;;9.61;49.56
76285;BME280;71676;50.998;7.098;2024-02-21T12:42:15;100809.00;;;9.39;49.82
76285;BME280;71676;50.998;7.098;2024-02-21T12:44:42;100816.81;;;9.47;50.18
76285;BME280;71676;50.998;7.098;2024-02-21T12:47:09;100805.38;;;9.94;48.70
76285;BME280;71676;50.998;7.098;2024-02-21T12:49:35;100804.53;;;9.99;49.13
76285;BME280;71676;50.998;7.098;2024-02-21T12:52:02;100785.34;;;9.69;48.79
76285;BME280;71676;50.998;7.098;2024-02-21T12:54:31;100784.50;;;9.70;49.25
76285;BME280;71676;50.998;7.098;2024-02-21T12:56:58;100764.38;;;9.39;49.76
76285;BME280;71676;50.998;7.098;2024-02-21T12:59:28;100731.22;;;9.64;49.43
76285;BME280;71676;50.998;7.098;2024-02-21T13:01:54;100709.81;;;9.70;48.89